createdAt,value
2018-08-20T00:00:30.156Z,0.00
2018-08-20T00:01:30.179Z,0.00
2018-08-20T00:02:30.212Z,0.00
2018-08-20T00:03:30.205Z,0.00
2018-08-20T00:04:30.206Z,0.00
2018-08-20T00:05:30.255Z,0.00
2018-08-20T00:06:30.220Z,0.00
2018-08-20T00:07:30.255Z,0.00
2018-08-20T00:08:30.272Z,0.00
2018-08-20T00:09:30.276Z,0.00
2018-08-20T00:10:30.338Z,0.00
2018-08-20T00:11:30.295Z,0.00
2018-08-20T00:12:30.300Z,0.00
2018-08-20T00:13:30.351Z,0.00
2018-08-20T00:14:30.382Z,0.00
2018-08-20T00:15:30.353Z,0.00
2018-08-20T00:16:30.363Z,0.00
2018-08-20T00:17:30.394Z,0.00
2018-08-20T00:18:30.381Z,0.00
2018-08-20T00:19:30.461Z,0.00
2018-08-20T00:20:30.470Z,0.00
2018-08-20T00:21:30.430Z,0.00
2018-08-20T00:22:30.451Z,0.00
2018-08-20T00:23:30.451Z,0.00
2018-08-20T00:24:30.503Z,0.00
2018-08-20T00:25:30.527Z,0.00
2018-08-20T00:26:30.490Z,0.00
2018-08-20T00:27:30.510Z,0.00
2018-08-20T00:28:30.519Z,0.00
2018-08-20T00:29:30.518Z,0.00
2018-08-20T00:30:30.580Z,0.00
2018-08-20T00:31:30.578Z,0.00
2018-08-20T00:32:30.589Z,0.00
2018-08-20T00:33:30.592Z,0.00
2018-08-20T00:34:30.612Z,0.00
2018-08-20T00:35:30.631Z,0.00
2018-08-20T00:36:30.633Z,0.00
2018-08-20T00:37:30.684Z,0.00
2018-08-20T00:38:30.653Z,0.00
2018-08-20T00:39:30.652Z,0.00
2018-08-20T00:40:30.702Z,0.00
2018-08-20T00:41:30.705Z,0.00
2018-08-20T00:42:30.726Z,0.00
2018-08-20T00:43:30.790Z,0.00
2018-08-20T00:44:30.726Z,0.00
2018-08-20T00:45:30.749Z,0.00
2018-08-20T00:46:30.766Z,0.00
2018-08-20T00:47:30.777Z,0.00
2018-08-20T00:48:30.807Z,0.00
2018-08-20T00:49:30.828Z,0.00
2018-08-20T00:50:30.839Z,0.00
2018-08-20T00:51:30.801Z,0.00
2018-08-20T00:52:30.835Z,0.00
2018-08-20T00:53:30.844Z,0.00
2018-08-20T00:54:30.919Z,0.00
2018-08-20T00:55:30.876Z,0.00
2018-08-20T00:56:30.893Z,0.00
2018-08-20T00:57:30.911Z,0.00
2018-08-20T00:58:30.932Z,0.00
2018-08-20T00:59:30.998Z,0.00
2018-08-20T01:00:30.944Z,0.00
2018-08-20T01:01:30.961Z,0.00
2018-08-20T01:02:30.957Z,0.00
2018-08-20T01:03:30.974Z,0.00
2018-08-20T01:04:31.007Z,0.00
2018-08-20T01:05:31.027Z,0.00
2018-08-20T01:06:31.052Z,0.00
2018-08-20T01:07:31.042Z,0.00
2018-08-20T01:08:31.051Z,0.00
2018-08-20T01:09:31.062Z,0.00
2018-08-20T01:10:31.106Z,0.00
2018-08-20T01:11:31.077Z,0.00
2018-08-20T01:12:31.088Z,0.00
2018-08-20T01:13:31.110Z,0.00
2018-08-20T01:14:31.094Z,0.00
2018-08-20T01:15:31.152Z,0.00
2018-08-20T01:16:31.256Z,0.00
2018-08-20T01:17:31.154Z,0.00
2018-08-20T01:18:31.178Z,0.00
2018-08-20T01:19:31.178Z,0.00
2018-08-20T01:20:31.202Z,0.00
2018-08-20T01:21:31.249Z,0.00
2018-08-20T01:22:31.203Z,0.00
2018-08-20T01:23:31.248Z,0.00
2018-08-20T01:24:31.257Z,0.00
2018-08-20T01:25:31.266Z,0.00
2018-08-20T01:26:31.299Z,0.00
2018-08-20T01:27:31.354Z,0.00
2018-08-20T01:28:31.300Z,0.00
2018-08-20T01:29:31.307Z,0.00
2018-08-20T01:30:31.317Z,0.00
2018-08-20T01:31:31.344Z,0.00
2018-08-20T01:32:31.378Z,0.00
2018-08-20T01:33:31.409Z,0.00
2018-08-20T01:34:31.383Z,0.00
2018-08-20T01:35:31.364Z,0.00
2018-08-20T01:36:31.387Z,0.00
2018-08-20T01:37:31.424Z,0.00
2018-08-20T01:38:31.530Z,0.00
2018-08-20T01:39:31.440Z,0.00
2018-08-20T01:40:31.462Z,0.00
2018-08-20T01:41:31.469Z,0.00
2018-08-20T01:42:31.463Z,0.00
2018-08-20T01:43:31.517Z,0.00
2018-08-20T01:44:31.497Z,0.00
2018-08-20T01:45:31.522Z,0.00
2018-08-20T01:46:31.517Z,0.00
2018-08-20T01:47:31.532Z,0.00
2018-08-20T01:48:31.592Z,0.00
2018-08-20T01:49:31.625Z,0.00
2018-08-20T01:50:31.584Z,0.00
2018-08-20T01:51:31.592Z,0.00
2018-08-20T01:52:31.605Z,0.00
2018-08-20T01:53:31.609Z,0.00
2018-08-20T01:54:31.653Z,0.00
2018-08-20T01:55:31.690Z,0.00
2018-08-20T01:56:31.629Z,0.00
2018-08-20T01:57:31.678Z,0.00
2018-08-20T01:58:31.683Z,0.00
2018-08-20T01:59:31.705Z,0.00
2018-08-20T02:00:31.750Z,0.00
2018-08-20T02:01:31.730Z,0.00
2018-08-20T02:02:31.736Z,0.00
2018-08-20T02:03:31.745Z,0.00
2018-08-20T02:04:31.745Z,0.00
2018-08-20T02:05:31.778Z,0.00
2018-08-20T02:06:31.788Z,0.00
2018-08-20T02:07:31.814Z,0.00
2018-08-20T02:08:31.801Z,0.00
2018-08-20T02:09:31.801Z,0.00
2018-08-20T02:10:31.884Z,0.00
2018-08-20T02:11:31.881Z,0.00
2018-08-20T02:12:31.848Z,0.00
2018-08-20T02:13:31.854Z,0.00
2018-08-20T02:14:31.859Z,0.00
2018-08-20T02:15:31.883Z,0.00
2018-08-20T02:16:31.916Z,0.00
2018-08-20T02:17:31.937Z,0.00
2018-08-20T02:18:31.947Z,0.00
2018-08-20T02:19:31.946Z,0.00
2018-08-20T02:20:31.954Z,0.00
2018-08-20T02:21:31.957Z,0.00
2018-08-20T02:22:32.000Z,0.00
2018-08-20T02:23:31.984Z,0.00
2018-08-20T02:24:31.987Z,0.00
2018-08-20T02:25:32.020Z,0.00
2018-08-20T02:26:32.057Z,0.00
2018-08-20T02:27:32.096Z,0.00
2018-08-20T02:28:32.056Z,0.00
2018-08-20T02:29:32.064Z,0.00
2018-08-20T02:30:32.068Z,0.00
2018-08-20T02:31:32.085Z,0.00
2018-08-20T02:32:32.138Z,0.00
2018-08-20T02:33:32.192Z,0.00
2018-08-20T02:34:32.150Z,0.00
2018-08-20T02:35:32.147Z,0.00
2018-08-20T02:36:32.128Z,0.00
2018-08-20T02:37:32.183Z,0.00
2018-08-20T02:38:32.226Z,0.00
2018-08-20T02:39:32.184Z,0.00
2018-08-20T02:40:32.208Z,0.00
2018-08-20T02:41:32.323Z,0.00
2018-08-20T02:42:32.206Z,0.00
2018-08-20T02:43:32.274Z,0.00
2018-08-20T02:44:32.282Z,0.00
2018-08-20T02:45:32.241Z,0.00
2018-08-20T02:46:32.256Z,0.00
2018-08-20T02:47:32.271Z,0.00
2018-08-20T02:48:32.371Z,0.00
2018-08-20T02:49:32.329Z,0.00
2018-08-20T02:50:32.316Z,0.00
2018-08-20T02:51:32.342Z,0.00
2018-08-20T02:52:32.361Z,0.00
2018-08-20T02:53:32.349Z,0.00
2018-08-20T02:54:32.396Z,0.00
2018-08-20T02:55:32.380Z,0.00
2018-08-20T02:56:32.422Z,0.00
2018-08-20T02:57:32.414Z,0.00
2018-08-20T02:58:32.422Z,0.00
2018-08-20T02:59:32.434Z,0.00
2018-08-20T03:00:32.462Z,0.00
2018-08-20T03:01:32.446Z,0.00
2018-08-20T03:02:32.483Z,0.00
2018-08-20T03:03:32.485Z,0.00
2018-08-20T03:04:32.512Z,0.00
2018-08-20T03:05:32.544Z,0.00
2018-08-20T03:06:32.532Z,0.00
2018-08-20T03:07:32.524Z,0.00
2018-08-20T03:08:32.575Z,0.00
2018-08-20T03:09:32.551Z,0.00
2018-08-20T03:10:32.579Z,0.00
2018-08-20T03:11:32.595Z,0.00
2018-08-20T03:12:32.606Z,0.00
2018-08-20T03:13:32.639Z,0.00
2018-08-20T03:14:32.612Z,0.00
2018-08-20T03:15:32.629Z,0.00
2018-08-20T03:16:32.700Z,0.00
2018-08-20T03:17:32.739Z,0.00
2018-08-20T03:18:32.669Z,0.00
2018-08-20T03:19:32.723Z,0.00
2018-08-20T03:20:32.691Z,0.00
2018-08-20T03:21:32.737Z,0.00
2018-08-20T03:22:32.734Z,0.00
2018-08-20T03:23:32.728Z,0.00
2018-08-20T03:24:32.744Z,0.00
2018-08-20T03:25:32.765Z,0.00
2018-08-20T03:26:32.773Z,0.00
2018-08-20T03:27:32.825Z,0.00
2018-08-20T03:28:32.795Z,0.00
2018-08-20T03:29:32.803Z,0.00
2018-08-20T03:30:32.848Z,0.00
2018-08-20T03:31:32.808Z,0.00
2018-08-20T03:32:32.859Z,0.00
2018-08-20T03:33:32.849Z,0.00
2018-08-20T03:34:32.847Z,0.00
2018-08-20T03:35:32.903Z,0.00
2018-08-20T03:36:32.938Z,0.00
2018-08-20T03:37:32.879Z,0.00
2018-08-20T03:38:32.884Z,0.00
2018-08-20T03:39:32.938Z,0.00
2018-08-20T03:40:32.994Z,0.00
2018-08-20T03:41:32.945Z,0.00
2018-08-20T03:42:32.980Z,0.00
2018-08-20T03:43:33.001Z,0.00
2018-08-20T03:44:32.978Z,0.00
2018-08-20T03:45:33.012Z,0.00
2018-08-20T03:46:33.004Z,0.00
2018-08-20T03:47:33.067Z,0.00
2018-08-20T03:48:33.034Z,0.00
2018-08-20T03:49:33.092Z,0.00
2018-08-20T03:50:33.041Z,0.00
2018-08-20T03:51:33.190Z,5.63
2018-08-20T03:52:33.090Z,5.63
2018-08-20T03:53:33.089Z,5.63
2018-08-20T03:54:33.132Z,5.63
2018-08-20T03:55:33.112Z,5.63
2018-08-20T03:56:33.124Z,5.63
2018-08-20T03:57:33.203Z,5.63
2018-08-20T03:58:33.142Z,5.63
2018-08-20T03:59:33.164Z,5.63
2018-08-20T04:00:33.163Z,11.25
2018-08-20T04:01:33.206Z,11.25
2018-08-20T04:02:33.244Z,11.25
2018-08-20T04:03:33.216Z,11.25
2018-08-20T04:04:33.231Z,11.25
2018-08-20T04:05:33.257Z,16.88
2018-08-20T04:06:33.281Z,16.88
2018-08-20T04:07:33.310Z,16.88
2018-08-20T04:08:33.270Z,16.88
2018-08-20T04:09:33.313Z,16.88
2018-08-20T04:10:33.290Z,22.50
2018-08-20T04:11:33.338Z,22.50
2018-08-20T04:12:33.324Z,22.50
2018-08-20T04:13:33.313Z,22.50
2018-08-20T04:14:33.372Z,28.13
2018-08-20T04:15:33.354Z,28.13
2018-08-20T04:16:33.418Z,28.13
2018-08-20T04:17:33.415Z,28.13
2018-08-20T04:18:33.388Z,33.75
2018-08-20T04:19:33.445Z,33.75
2018-08-20T04:20:33.558Z,33.75
2018-08-20T04:21:33.481Z,33.75
2018-08-20T04:22:33.445Z,39.38
2018-08-20T04:23:33.454Z,39.38
2018-08-20T04:24:33.465Z,39.38
2018-08-20T04:25:33.462Z,45.00
2018-08-20T04:26:33.565Z,45.00
2018-08-20T04:27:33.547Z,50.63
2018-08-20T04:28:33.506Z,50.63
2018-08-20T04:29:33.593Z,56.25
2018-08-20T04:30:33.587Z,61.88
2018-08-20T04:31:33.549Z,61.88
2018-08-20T04:32:33.611Z,61.88
2018-08-20T04:33:33.585Z,67.50
2018-08-20T04:34:33.588Z,67.50
2018-08-20T04:35:33.608Z,67.50
2018-08-20T04:36:33.685Z,73.13
2018-08-20T04:37:33.676Z,73.13
2018-08-20T04:38:33.653Z,73.13
2018-08-20T04:39:33.684Z,73.13
2018-08-20T04:40:33.654Z,73.13
2018-08-20T04:41:33.683Z,78.75
2018-08-20T04:42:33.764Z,78.75
2018-08-20T04:43:33.692Z,84.38
2018-08-20T04:44:33.746Z,84.38
2018-08-20T04:45:33.725Z,90.00
2018-08-20T04:46:33.752Z,95.63
2018-08-20T04:47:33.763Z,95.63
2018-08-20T04:48:33.801Z,95.63
2018-08-20T04:49:33.781Z,101.25
2018-08-20T04:50:33.949Z,101.25
2018-08-20T04:51:33.849Z,106.88
2018-08-20T04:52:33.813Z,106.88
2018-08-20T04:53:33.865Z,112.50
2018-08-20T04:54:33.820Z,118.13
2018-08-20T04:55:33.903Z,118.13
2018-08-20T04:56:33.845Z,123.75
2018-08-20T04:57:33.916Z,123.75
2018-08-20T04:58:33.872Z,129.38
2018-08-20T04:59:33.927Z,129.38
2018-08-20T05:00:33.966Z,135.00
2018-08-20T05:01:33.928Z,135.00
2018-08-20T05:02:33.935Z,140.63
2018-08-20T05:03:33.946Z,140.63
2018-08-20T05:04:33.995Z,118.13
2018-08-20T05:05:34.018Z,123.75
2018-08-20T05:06:33.998Z,146.25
2018-08-20T05:07:34.009Z,95.63
2018-08-20T05:08:34.015Z,135.00
2018-08-20T05:09:34.040Z,146.25
2018-08-20T05:10:34.064Z,146.25
2018-08-20T05:11:34.107Z,151.88
2018-08-20T05:12:34.080Z,151.88
2018-08-20T05:13:34.084Z,151.88
2018-08-20T05:14:34.078Z,151.88
2018-08-20T05:15:34.120Z,151.88
2018-08-20T05:16:34.116Z,151.88
2018-08-20T05:17:34.188Z,157.50
2018-08-20T05:18:34.141Z,163.13
2018-08-20T05:19:34.176Z,163.13
2018-08-20T05:20:34.163Z,168.75
2018-08-20T05:21:34.179Z,168.75
2018-08-20T05:22:34.229Z,174.38
2018-08-20T05:23:34.249Z,174.38
2018-08-20T05:24:34.308Z,174.38
2018-08-20T05:25:34.227Z,180.00
2018-08-20T05:26:34.337Z,180.00
2018-08-20T05:27:34.259Z,185.63
2018-08-20T05:28:34.323Z,191.25
2018-08-20T05:29:34.290Z,196.88
2018-08-20T05:30:34.362Z,196.88
2018-08-20T05:31:34.317Z,202.50
2018-08-20T05:32:34.324Z,202.50
2018-08-20T05:33:34.372Z,202.50
2018-08-20T05:34:34.349Z,157.50
2018-08-20T05:35:34.376Z,151.88
2018-08-20T05:36:34.403Z,202.50
2018-08-20T05:37:34.373Z,219.38
2018-08-20T05:38:34.450Z,208.13
2018-08-20T05:39:34.421Z,208.13
2018-08-20T05:40:34.443Z,163.13
2018-08-20T05:41:34.453Z,157.50
2018-08-20T05:42:34.447Z,241.88
2018-08-20T05:43:34.513Z,225.00
2018-08-20T05:44:34.553Z,180.00
2018-08-20T05:45:34.494Z,230.63
2018-08-20T05:46:34.494Z,191.25
2018-08-20T05:47:34.532Z,174.38
2018-08-20T05:48:34.561Z,174.38
2018-08-20T05:49:34.593Z,174.38
2018-08-20T05:50:34.591Z,258.75
2018-08-20T05:51:34.569Z,185.63
2018-08-20T05:52:34.619Z,202.50
2018-08-20T05:53:34.605Z,241.88
2018-08-20T05:54:34.645Z,270.00
2018-08-20T05:55:34.704Z,286.88
2018-08-20T05:56:34.758Z,219.38
2018-08-20T05:57:34.673Z,236.25
2018-08-20T05:58:34.705Z,219.38
2018-08-20T05:59:34.710Z,236.25
2018-08-20T06:00:34.745Z,275.63
2018-08-20T06:01:34.790Z,258.75
2018-08-20T06:02:34.779Z,348.75
2018-08-20T06:03:34.750Z,275.63
2018-08-20T06:04:34.751Z,281.25
2018-08-20T06:05:34.772Z,320.63
2018-08-20T06:06:34.824Z,264.38
2018-08-20T06:07:34.822Z,264.38
2018-08-20T06:08:34.830Z,270.00
2018-08-20T06:09:34.839Z,236.25
2018-08-20T06:10:34.860Z,247.50
2018-08-20T06:11:34.915Z,270.00
2018-08-20T06:12:34.883Z,225.00
2018-08-20T06:13:34.886Z,213.75
2018-08-20T06:14:34.910Z,247.50
2018-08-20T06:15:34.936Z,236.25
2018-08-20T06:16:34.982Z,253.13
2018-08-20T06:17:34.945Z,286.88
2018-08-20T06:18:34.996Z,298.13
2018-08-20T06:19:34.970Z,286.88
2018-08-20T06:20:34.967Z,275.63
2018-08-20T06:21:35.016Z,298.13
2018-08-20T06:22:35.105Z,264.38
2018-08-20T06:23:35.049Z,264.38
2018-08-20T06:24:35.048Z,275.63
2018-08-20T06:25:35.104Z,270.00
2018-08-20T06:26:35.075Z,286.88
2018-08-20T06:27:35.094Z,286.88
2018-08-20T06:28:35.131Z,298.13
2018-08-20T06:29:35.119Z,303.75
2018-08-20T06:30:35.185Z,303.75
2018-08-20T06:31:35.142Z,309.38
2018-08-20T06:32:35.156Z,281.25
2018-08-20T06:33:35.187Z,275.63
2018-08-20T06:34:35.197Z,303.75
2018-08-20T06:35:35.253Z,286.88
2018-08-20T06:36:35.256Z,309.38
2018-08-20T06:37:35.239Z,281.25
2018-08-20T06:38:35.257Z,253.13
2018-08-20T06:39:35.257Z,264.38
2018-08-20T06:40:35.307Z,331.88
2018-08-20T06:41:35.451Z,348.75
2018-08-20T06:42:35.336Z,315.00
2018-08-20T06:43:35.342Z,275.63
2018-08-20T06:44:35.354Z,264.38
2018-08-20T06:45:35.332Z,286.88
2018-08-20T06:46:35.411Z,298.13
2018-08-20T06:47:35.364Z,286.88
2018-08-20T06:48:35.381Z,281.25
2018-08-20T06:49:35.425Z,270.00
2018-08-20T06:50:35.418Z,264.38
2018-08-20T06:51:35.459Z,258.75
2018-08-20T06:52:35.470Z,281.25
2018-08-20T06:53:35.472Z,275.63
2018-08-20T06:54:35.547Z,236.25
2018-08-20T06:55:35.476Z,236.25
2018-08-20T06:56:35.537Z,230.63
2018-08-20T06:57:35.524Z,230.63
2018-08-20T06:58:35.540Z,258.75
2018-08-20T06:59:35.551Z,253.13
2018-08-20T07:00:35.569Z,275.63
2018-08-20T07:01:35.622Z,286.88
2018-08-20T07:02:35.593Z,303.75
2018-08-20T07:03:35.590Z,315.00
2018-08-20T07:04:35.655Z,331.88
2018-08-20T07:05:35.619Z,388.13
2018-08-20T07:06:35.706Z,410.63
2018-08-20T07:07:35.664Z,421.88
2018-08-20T07:08:35.689Z,399.38
2018-08-20T07:09:35.676Z,388.13
2018-08-20T07:10:35.715Z,360.00
2018-08-20T07:11:35.753Z,343.13
2018-08-20T07:12:35.731Z,360.00
2018-08-20T07:13:35.752Z,371.25
2018-08-20T07:14:35.783Z,388.13
2018-08-20T07:15:35.784Z,393.75
2018-08-20T07:16:35.831Z,326.25
2018-08-20T07:17:35.829Z,258.75
2018-08-20T07:18:35.843Z,225.00
2018-08-20T07:19:35.869Z,213.75
2018-08-20T07:20:35.891Z,219.38
2018-08-20T07:21:35.909Z,236.25
2018-08-20T07:22:35.885Z,264.38
2018-08-20T07:23:35.993Z,298.13
2018-08-20T07:24:35.972Z,309.38
2018-08-20T07:25:35.945Z,326.25
2018-08-20T07:26:35.928Z,326.25
2018-08-20T07:27:35.960Z,343.13
2018-08-20T07:28:36.003Z,348.75
2018-08-20T07:29:36.036Z,348.75
2018-08-20T07:30:35.999Z,354.38
2018-08-20T07:31:36.019Z,371.25
2018-08-20T07:32:36.036Z,388.13
2018-08-20T07:33:36.036Z,388.13
2018-08-20T07:34:36.116Z,388.13
2018-08-20T07:35:36.089Z,393.75
2018-08-20T07:36:36.086Z,393.75
2018-08-20T07:37:36.119Z,405.00
2018-08-20T07:38:36.122Z,410.63
2018-08-20T07:39:36.180Z,399.38
2018-08-20T07:40:36.158Z,405.00
2018-08-20T07:41:36.209Z,399.38
2018-08-20T07:42:36.196Z,405.00
2018-08-20T07:43:36.205Z,427.50
2018-08-20T07:44:36.258Z,438.75
2018-08-20T07:45:36.228Z,421.88
2018-08-20T07:46:36.247Z,416.25
2018-08-20T07:47:36.357Z,421.88
2018-08-20T07:48:36.281Z,438.75
2018-08-20T07:49:36.276Z,444.38
2018-08-20T07:50:36.286Z,438.75
2018-08-20T07:51:36.355Z,421.88
2018-08-20T07:52:36.336Z,427.50
2018-08-20T07:53:36.383Z,438.75
2018-08-20T07:54:36.350Z,438.75
2018-08-20T07:55:36.389Z,433.13
2018-08-20T07:56:36.401Z,416.25
2018-08-20T07:57:36.409Z,405.00
2018-08-20T07:58:36.467Z,416.25
2018-08-20T07:59:36.437Z,421.88
2018-08-20T08:00:36.427Z,416.25
2018-08-20T08:01:36.473Z,421.88
2018-08-20T08:02:36.474Z,416.25
2018-08-20T08:03:36.537Z,416.25
2018-08-20T08:04:36.554Z,433.13
2018-08-20T08:05:36.554Z,427.50
2018-08-20T08:06:36.602Z,416.25
2018-08-20T08:07:36.541Z,405.00
2018-08-20T08:08:36.649Z,393.75
2018-08-20T08:09:37.074Z,410.63
2018-08-20T08:10:36.584Z,433.13
2018-08-20T08:11:36.607Z,433.13
2018-08-20T08:12:36.617Z,433.13
2018-08-20T08:13:36.704Z,438.75
2018-08-20T08:14:36.668Z,427.50
2018-08-20T08:15:36.684Z,410.63
2018-08-20T08:16:36.686Z,410.63
2018-08-20T08:17:36.699Z,410.63
2018-08-20T08:18:36.741Z,416.25
2018-08-20T08:19:36.768Z,427.50
2018-08-20T08:20:36.778Z,427.50
2018-08-20T08:21:36.761Z,438.75
2018-08-20T08:22:36.790Z,450.00
2018-08-20T08:23:36.819Z,444.38
2018-08-20T08:24:36.892Z,461.25
2018-08-20T08:25:36.820Z,466.88
2018-08-20T08:26:36.851Z,466.88
2018-08-20T08:27:36.856Z,478.13
2018-08-20T08:28:36.870Z,489.38
2018-08-20T08:29:36.908Z,461.25
2018-08-20T08:30:36.938Z,450.00
2018-08-20T08:31:36.903Z,438.75
2018-08-20T08:32:36.932Z,427.50
2018-08-20T08:33:36.942Z,410.63
2018-08-20T08:34:36.960Z,376.88
2018-08-20T08:35:37.012Z,343.13
2018-08-20T08:36:36.973Z,320.63
2018-08-20T08:37:36.998Z,309.38
2018-08-20T08:38:37.020Z,315.00
2018-08-20T08:39:37.060Z,320.63
2018-08-20T08:40:37.105Z,331.88
2018-08-20T08:41:37.116Z,326.25
2018-08-20T08:42:37.096Z,331.88
2018-08-20T08:43:37.114Z,331.88
2018-08-20T08:44:37.116Z,331.88
2018-08-20T08:45:37.116Z,331.88
2018-08-20T08:46:37.190Z,331.88
2018-08-20T08:47:37.173Z,337.50
2018-08-20T08:48:37.181Z,348.75
2018-08-20T08:49:37.223Z,354.38
2018-08-20T08:50:37.231Z,348.75
2018-08-20T08:51:37.277Z,343.13
2018-08-20T08:52:37.236Z,343.13
2018-08-20T08:53:37.248Z,354.38
2018-08-20T08:54:37.260Z,360.00
2018-08-20T08:55:37.279Z,371.25
2018-08-20T08:56:37.322Z,371.25
2018-08-20T08:57:37.330Z,376.88
2018-08-20T08:58:37.347Z,376.88
2018-08-20T08:59:37.407Z,393.75
2018-08-20T09:00:37.389Z,393.75
2018-08-20T09:01:37.393Z,410.63
2018-08-20T09:02:37.424Z,421.88
2018-08-20T09:03:37.570Z,427.50
2018-08-20T09:04:37.424Z,438.75
2018-08-20T09:05:37.438Z,450.00
2018-08-20T09:06:37.431Z,450.00
2018-08-20T09:07:37.458Z,450.00
2018-08-20T09:08:37.506Z,472.50
2018-08-20T09:09:37.494Z,483.75
2018-08-20T09:10:37.594Z,495.00
2018-08-20T09:11:37.568Z,500.63
2018-08-20T09:12:37.589Z,500.63
2018-08-20T09:13:37.548Z,506.25
2018-08-20T09:14:37.664Z,500.63
2018-08-20T09:15:37.600Z,495.00
2018-08-20T09:16:37.634Z,500.63
2018-08-20T09:17:37.607Z,511.88
2018-08-20T09:18:37.675Z,523.13
2018-08-20T09:19:37.639Z,534.38
2018-08-20T09:20:37.765Z,551.25
2018-08-20T09:21:37.659Z,562.50
2018-08-20T09:22:37.711Z,556.88
2018-08-20T09:23:37.752Z,540.00
2018-08-20T09:24:37.736Z,545.63
2018-08-20T09:25:37.742Z,534.38
2018-08-20T09:26:37.744Z,506.25
2018-08-20T09:27:37.771Z,506.25
2018-08-20T09:28:37.808Z,506.25
2018-08-20T09:29:37.809Z,500.63
2018-08-20T09:30:37.819Z,495.00
2018-08-20T09:31:37.839Z,500.63
2018-08-20T09:32:37.874Z,517.50
2018-08-20T09:33:37.960Z,528.75
2018-08-20T09:34:37.876Z,517.50
2018-08-20T09:35:37.901Z,495.00
2018-08-20T09:36:37.894Z,478.13
2018-08-20T09:37:37.953Z,483.75
2018-08-20T09:38:37.960Z,483.75
2018-08-20T09:39:37.966Z,489.38
2018-08-20T09:40:37.995Z,450.00
2018-08-20T09:41:37.996Z,416.25
2018-08-20T09:42:37.994Z,399.38
2018-08-20T09:43:38.041Z,343.13
2018-08-20T09:44:38.056Z,292.50
2018-08-20T09:45:38.050Z,309.38
2018-08-20T09:46:38.069Z,343.13
2018-08-20T09:47:38.132Z,354.38
2018-08-20T09:48:38.081Z,348.75
2018-08-20T09:49:38.190Z,337.50
2018-08-20T09:50:38.134Z,331.88
2018-08-20T09:51:38.145Z,326.25
2018-08-20T09:52:38.174Z,303.75
2018-08-20T09:53:38.204Z,292.50
2018-08-20T09:54:38.221Z,264.38
2018-08-20T09:55:38.260Z,219.38
2018-08-20T09:56:38.288Z,208.13
2018-08-20T09:57:38.237Z,202.50
2018-08-20T09:58:38.263Z,196.88
2018-08-20T09:59:38.309Z,191.25
2018-08-20T10:00:38.319Z,208.13
2018-08-20T10:01:38.300Z,219.38
2018-08-20T10:02:38.333Z,208.13
2018-08-20T10:03:38.331Z,208.13
2018-08-20T10:04:38.391Z,213.75
2018-08-20T10:05:38.413Z,225.00
2018-08-20T10:06:38.388Z,236.25
2018-08-20T10:07:38.397Z,241.88
2018-08-20T10:08:38.424Z,230.63
2018-08-20T10:09:38.464Z,208.13
2018-08-20T10:10:38.498Z,219.38
2018-08-20T10:11:38.464Z,236.25
2018-08-20T10:12:38.519Z,264.38
2018-08-20T10:13:38.482Z,281.25
2018-08-20T10:14:38.517Z,320.63
2018-08-20T10:15:38.531Z,348.75
2018-08-20T10:16:38.525Z,376.88
2018-08-20T10:17:38.591Z,388.13
2018-08-20T10:18:38.581Z,371.25
2018-08-20T10:19:38.605Z,354.38
2018-08-20T10:20:38.597Z,354.38
2018-08-20T10:21:38.596Z,371.25
2018-08-20T10:22:38.679Z,388.13
2018-08-20T10:23:38.690Z,393.75
2018-08-20T10:24:38.656Z,399.38
2018-08-20T10:25:38.657Z,405.00
2018-08-20T10:26:38.711Z,410.63
2018-08-20T10:27:38.719Z,399.38
2018-08-20T10:28:38.770Z,382.50
2018-08-20T10:29:38.739Z,371.25
2018-08-20T10:30:38.751Z,337.50
2018-08-20T10:31:38.757Z,337.50
2018-08-20T10:32:38.770Z,320.63
2018-08-20T10:33:38.847Z,309.38
2018-08-20T10:34:38.865Z,337.50
2018-08-20T10:35:38.819Z,337.50
2018-08-20T10:36:38.873Z,360.00
2018-08-20T10:37:38.909Z,376.88
2018-08-20T10:38:38.882Z,410.63
2018-08-20T10:39:38.902Z,438.75
2018-08-20T10:40:38.961Z,455.63
2018-08-20T10:41:38.941Z,461.25
2018-08-20T10:42:38.952Z,483.75
2018-08-20T10:43:38.997Z,478.13
2018-08-20T10:44:38.962Z,478.13
2018-08-20T10:45:39.032Z,483.75
2018-08-20T10:46:39.003Z,506.25
2018-08-20T10:47:39.011Z,500.63
2018-08-20T10:48:39.010Z,500.63
2018-08-20T10:49:39.017Z,511.88
2018-08-20T10:50:39.065Z,545.63
2018-08-20T10:51:39.093Z,556.88
2018-08-20T10:52:39.095Z,562.50
2018-08-20T10:53:39.090Z,556.88
2018-08-20T10:54:39.107Z,523.13
2018-08-20T10:55:39.164Z,472.50
2018-08-20T10:56:39.201Z,466.88
2018-08-20T10:57:39.163Z,466.88
2018-08-20T10:58:39.190Z,461.25
2018-08-20T10:59:39.186Z,472.50
2018-08-20T11:00:39.207Z,489.38
2018-08-20T11:01:39.308Z,523.13
2018-08-20T11:02:39.250Z,540.00
2018-08-20T11:03:39.268Z,562.50
2018-08-20T11:04:39.316Z,568.13
2018-08-20T11:05:39.291Z,568.13
2018-08-20T11:06:39.394Z,562.50
2018-08-20T11:07:39.305Z,573.75
2018-08-20T11:08:39.355Z,562.50
2018-08-20T11:09:39.371Z,545.63
2018-08-20T11:10:39.398Z,511.88
2018-08-20T11:11:39.409Z,466.88
2018-08-20T11:12:39.464Z,416.25
2018-08-20T11:13:39.434Z,365.63
2018-08-20T11:14:39.425Z,360.00
2018-08-20T11:15:39.464Z,376.88
2018-08-20T11:16:39.449Z,360.00
2018-08-20T11:17:39.521Z,337.50
2018-08-20T11:18:39.553Z,320.63
2018-08-20T11:19:39.595Z,331.88
2018-08-20T11:20:39.534Z,326.25
2018-08-20T11:21:39.550Z,303.75
2018-08-20T11:22:39.557Z,275.63
2018-08-20T11:23:39.611Z,253.13
2018-08-20T11:24:39.636Z,247.50
2018-08-20T11:25:39.631Z,253.13
2018-08-20T11:26:39.669Z,236.25
2018-08-20T11:27:39.691Z,264.38
2018-08-20T11:28:39.694Z,241.88
2018-08-20T11:29:39.659Z,213.75
2018-08-20T11:30:39.720Z,225.00
2018-08-20T11:31:39.716Z,236.25
2018-08-20T11:32:39.719Z,258.75
2018-08-20T11:33:39.781Z,253.13
2018-08-20T11:34:39.787Z,264.38
2018-08-20T11:35:39.760Z,303.75
2018-08-20T11:36:39.815Z,348.75
2018-08-20T11:37:39.806Z,388.13
2018-08-20T11:38:39.879Z,455.63
2018-08-20T11:39:39.852Z,478.13
2018-08-20T11:40:39.875Z,461.25
2018-08-20T11:41:39.869Z,388.13
2018-08-20T11:42:39.896Z,365.63
2018-08-20T11:43:39.947Z,371.25
2018-08-20T11:44:39.920Z,337.50
2018-08-20T11:45:39.965Z,275.63
2018-08-20T11:46:39.968Z,208.13
2018-08-20T11:47:39.988Z,213.75
2018-08-20T11:48:39.981Z,230.63
2018-08-20T11:49:40.034Z,213.75
2018-08-20T11:50:40.006Z,180.00
2018-08-20T11:51:40.037Z,157.50
2018-08-20T11:52:40.025Z,157.50
2018-08-20T11:53:40.053Z,140.63
2018-08-20T11:54:40.128Z,129.38
2018-08-20T11:55:40.135Z,140.63
2018-08-20T11:56:40.140Z,151.88
2018-08-20T11:57:40.139Z,163.13
2018-08-20T11:58:40.146Z,157.50
2018-08-20T11:59:40.155Z,140.63
2018-08-20T12:00:40.157Z,135.00
2018-08-20T12:01:40.204Z,135.00
2018-08-20T12:02:40.240Z,129.38
2018-08-20T12:03:40.236Z,123.75
2018-08-20T12:04:40.260Z,123.75
2018-08-20T12:05:40.237Z,118.13
2018-08-20T12:06:40.273Z,101.25
2018-08-20T12:07:40.387Z,101.25
2018-08-20T12:08:40.271Z,101.25
2018-08-20T12:09:40.305Z,106.88
2018-08-20T12:10:40.320Z,118.13
2018-08-20T12:11:40.339Z,135.00
2018-08-20T12:12:40.371Z,140.63
2018-08-20T12:13:40.357Z,140.63
2018-08-20T12:14:40.406Z,163.13
2018-08-20T12:15:40.447Z,174.38
2018-08-20T12:16:40.388Z,163.13
2018-08-20T12:17:40.437Z,135.00
2018-08-20T12:18:40.444Z,135.00
2018-08-20T12:19:40.508Z,140.63
2018-08-20T12:20:40.459Z,146.25
2018-08-20T12:21:40.475Z,168.75
2018-08-20T12:22:40.509Z,213.75
2018-08-20T12:23:40.506Z,253.13
2018-08-20T12:24:40.563Z,247.50
2018-08-20T12:25:40.582Z,241.88
2018-08-20T12:26:40.581Z,258.75
2018-08-20T12:27:40.590Z,281.25
2018-08-20T12:28:40.578Z,281.25
2018-08-20T12:29:40.587Z,247.50
2018-08-20T12:30:40.654Z,213.75
2018-08-20T12:31:40.660Z,185.63
2018-08-20T12:32:40.625Z,174.38
2018-08-20T12:33:40.655Z,180.00
2018-08-20T12:34:40.660Z,219.38
2018-08-20T12:35:40.824Z,292.50
2018-08-20T12:36:40.706Z,343.13
2018-08-20T12:37:40.735Z,326.25
2018-08-20T12:38:40.741Z,348.75
2018-08-20T12:39:40.787Z,399.38
2018-08-20T12:40:40.808Z,421.88
2018-08-20T12:41:40.782Z,416.25
2018-08-20T12:42:40.844Z,376.88
2018-08-20T12:43:40.822Z,326.25
2018-08-20T12:44:40.822Z,303.75
2018-08-20T12:45:40.831Z,292.50